createdAt,value
2016-08-29T00:01:14.927Z,21.39
2016-08-29T00:03:24.323Z,21.41
2016-08-29T00:07:15.994Z,21.31
2016-08-29T00:08:19.580Z,21.29
2016-08-29T00:30:16.602Z,21.34
2016-08-29T00:31:21.969Z,21.42
2016-08-29T00:33:54.137Z,21.47
2016-08-29T00:34:16.044Z,21.46
2016-08-29T00:35:16.672Z,21.48
2016-08-29T00:37:21.087Z,21.52
2016-08-29T00:38:21.079Z,21.55
2016-08-29T00:39:14.813Z,21.53
2016-08-29T00:40:16.451Z,21.54
2016-08-29T00:42:12.629Z,21.55
2016-08-29T00:45:22.149Z,21.54
2016-08-29T00:49:13.997Z,21.58
2016-08-29T00:51:19.887Z,21.58
2016-08-29T00:53:21.232Z,21.63
2016-08-29T00:54:20.346Z,21.65
2016-08-29T00:56:22.846Z,21.60
2016-08-29T00:59:16.833Z,21.58
2016-08-29T01:00:15.065Z,21.55
2016-08-29T01:01:13.861Z,21.57
2016-08-29T01:02:20.360Z,21.60
2016-08-29T01:03:18.710Z,21.59
2016-08-29T01:04:17.487Z,21.63
2016-08-29T01:05:21.317Z,21.60
2016-08-29T01:06:12.912Z,21.63
2016-08-29T01:07:17.060Z,21.58
2016-08-29T01:08:22.182Z,21.52
2016-08-29T01:09:22.719Z,21.56
2016-08-29T01:10:13.579Z,21.58
2016-08-29T01:11:15.233Z,21.60
2016-08-29T01:12:20.259Z,21.58
2016-08-29T01:13:23.456Z,21.59
2016-08-29T01:14:19.756Z,21.59
2016-08-29T01:17:21.958Z,21.54
2016-08-29T01:18:21.082Z,21.53
2016-08-29T01:19:21.288Z,21.52
2016-08-29T01:20:21.356Z,21.51
2016-08-29T01:21:16.790Z,21.52
2016-08-29T01:22:17.098Z,21.54
2016-08-29T01:23:14.310Z,21.57
2016-08-29T01:25:18.236Z,21.62
2016-08-29T01:26:14.043Z,21.65
2016-08-29T01:28:22.333Z,21.62
2016-08-29T01:29:22.181Z,21.59
2016-08-29T01:30:17.007Z,21.57
2016-08-29T01:32:33.407Z,21.62
2016-08-29T01:33:22.797Z,21.66
2016-08-29T01:34:15.601Z,21.62
2016-08-29T01:35:20.688Z,21.61
2016-08-29T01:36:16.443Z,21.62
2016-08-29T01:37:12.814Z,21.60
2016-08-29T01:48:17.994Z,21.53
2016-08-29T01:49:21.225Z,21.51
2016-08-29T01:55:17.630Z,21.53
2016-08-29T01:56:46.136Z,21.54
2016-08-29T01:57:13.360Z,21.53
2016-08-29T02:00:32.630Z,21.55
2016-08-29T02:01:11.771Z,21.56
2016-08-29T02:02:17.413Z,21.57
2016-08-29T02:04:12.692Z,21.55
2016-08-29T02:11:16.894Z,21.54
2016-08-29T02:12:16.700Z,21.55
2016-08-29T02:15:18.640Z,21.55
2016-08-29T02:26:22.399Z,21.55
2016-08-29T02:33:15.786Z,21.41
2016-08-29T02:35:23.327Z,21.41
2016-08-29T02:36:20.164Z,21.42
2016-08-29T05:01:19.813Z,20.38
2016-08-29T05:09:11.759Z,20.38
2016-08-29T05:10:19.826Z,20.33
2016-08-29T05:11:12.903Z,20.32
2016-08-29T05:12:15.717Z,20.34
2016-08-29T05:13:21.601Z,20.34
2016-08-29T05:14:18.699Z,20.33
2016-08-29T05:16:11.760Z,20.37
2016-08-29T05:17:11.213Z,20.31
2016-08-29T05:18:11.164Z,20.33
2016-08-29T05:20:20.725Z,20.38
2016-08-29T05:21:22.005Z,20.40
2016-08-29T05:22:20.195Z,20.41
2016-08-29T05:23:22.849Z,20.42
2016-08-29T05:24:22.025Z,20.39
2016-08-29T05:25:11.688Z,20.40
2016-08-29T05:26:19.373Z,20.41
2016-08-29T05:27:21.454Z,20.40
2016-08-29T05:28:11.796Z,20.35
2016-08-29T05:29:17.041Z,20.36
2016-08-29T05:30:16.811Z,20.44
2016-08-29T05:32:19.692Z,20.48
2016-08-29T05:33:15.228Z,20.50
2016-08-29T05:34:15.078Z,20.44
2016-08-29T05:35:20.843Z,20.45
2016-08-29T05:36:12.862Z,20.50
2016-08-29T05:37:12.093Z,20.55
2016-08-29T05:38:11.926Z,20.55
2016-08-29T05:39:17.261Z,20.53
2016-08-29T05:40:23.833Z,20.56
2016-08-29T05:41:13.216Z,20.60
2016-08-29T05:42:15.616Z,20.63
2016-08-29T05:43:17.612Z,20.62
2016-08-29T05:44:15.022Z,20.62
2016-08-29T05:45:14.045Z,20.63
2016-08-29T05:46:12.816Z,20.60
2016-08-29T05:47:11.452Z,20.60
2016-08-29T05:48:12.613Z,20.62
2016-08-29T05:49:14.277Z,20.62
2016-08-29T05:50:11.718Z,20.71
2016-08-29T05:51:12.683Z,20.74
2016-08-29T05:52:13.357Z,20.75
2016-08-29T05:53:12.172Z,20.72
2016-08-29T05:54:12.402Z,20.73
2016-08-29T05:55:11.570Z,20.78
2016-08-29T05:56:13.225Z,20.82
2016-08-29T05:57:10.041Z,20.79
2016-08-29T05:58:13.218Z,20.74
2016-08-29T05:59:12.139Z,20.76
2016-08-29T06:00:17.926Z,20.76
2016-08-29T06:01:13.387Z,20.78
2016-08-29T06:02:12.390Z,20.78
2016-08-29T06:03:12.621Z,20.76
2016-08-29T06:04:18.534Z,20.71
2016-08-29T06:05:13.844Z,20.75
2016-08-29T06:06:13.172Z,20.77
2016-08-29T06:07:12.308Z,20.74
2016-08-29T06:08:13.164Z,20.82
2016-08-29T06:09:14.208Z,20.88
2016-08-29T06:10:12.676Z,20.85
2016-08-29T06:11:12.829Z,20.88
2016-08-29T06:12:11.749Z,20.90
2016-08-29T06:13:12.708Z,20.93
2016-08-29T06:14:12.145Z,20.98
2016-08-29T06:15:10.630Z,21.00
2016-08-29T06:16:11.729Z,21.00
2016-08-29T06:17:14.496Z,21.05
2016-08-29T06:18:13.082Z,21.05
2016-08-29T06:19:22.464Z,21.08
2016-08-29T06:20:10.565Z,21.12
2016-08-29T06:21:10.239Z,21.19
2016-08-29T06:22:17.529Z,21.19
2016-08-29T06:23:12.282Z,21.25
2016-08-29T06:24:21.151Z,21.29
2016-08-29T06:25:17.592Z,21.34
2016-08-29T06:26:13.877Z,21.34
2016-08-29T06:27:15.609Z,21.35
2016-08-29T06:28:13.340Z,21.41
2016-08-29T06:29:15.051Z,21.47
2016-08-29T06:30:16.984Z,21.41
2016-08-29T06:31:15.244Z,21.47
2016-08-29T06:32:13.729Z,21.44
2016-08-29T06:33:34.896Z,21.51
2016-08-29T06:34:22.650Z,21.56
2016-08-29T06:35:13.291Z,21.53
2016-08-29T06:36:13.792Z,21.50
2016-08-29T06:38:22.008Z,21.56
2016-08-29T06:39:18.655Z,21.56
2016-08-29T06:40:13.047Z,21.57
2016-08-29T06:41:22.526Z,21.59
2016-08-29T06:42:20.921Z,21.52
2016-08-29T06:43:23.317Z,21.51
2016-08-29T06:44:21.201Z,21.51
2016-08-29T06:45:19.386Z,21.45
2016-08-29T06:46:22.324Z,21.38
2016-08-29T06:48:18.883Z,21.40
2016-08-29T06:49:16.038Z,21.42
2016-08-29T06:50:13.628Z,21.36
2016-08-29T06:51:15.391Z,21.36
2016-08-29T06:52:14.787Z,21.27
2016-08-29T06:53:22.383Z,21.37
2016-08-29T06:54:20.676Z,21.37
2016-08-29T06:55:18.584Z,21.39
2016-08-29T06:56:17.651Z,21.40
2016-08-29T06:57:21.924Z,21.36
2016-08-29T06:58:34.664Z,21.40
2016-08-29T06:59:23.442Z,21.33
2016-08-29T07:00:20.588Z,21.32
2016-08-29T07:01:25.227Z,21.27
2016-08-29T07:02:21.936Z,21.21
2016-08-29T07:03:15.345Z,21.22
2016-08-29T07:04:20.749Z,21.21
2016-08-29T07:05:19.865Z,21.22
2016-08-29T07:06:20.007Z,21.27
2016-08-29T07:07:21.500Z,21.15
2016-08-29T07:08:13.137Z,21.13
2016-08-29T07:09:20.682Z,21.16
2016-08-29T07:10:21.410Z,21.10
2016-08-29T07:11:21.238Z,21.02
2016-08-29T07:12:25.437Z,20.99
2016-08-29T07:13:23.594Z,21.04
2016-08-29T07:14:23.753Z,20.93
2016-08-29T07:15:34.257Z,20.90
2016-08-29T07:16:17.728Z,20.74
2016-08-29T07:17:15.662Z,20.63
2016-08-29T07:18:16.973Z,20.53
2016-08-29T07:19:16.909Z,20.57
2016-08-29T07:23:20.438Z,20.56
2016-08-29T10:04:19.316Z,19.48
2016-08-29T10:15:40.402Z,19.36
2016-08-29T10:16:29.261Z,19.20
2016-08-29T10:17:23.035Z,19.08
2016-08-29T10:19:20.185Z,19.12
2016-08-29T10:20:14.031Z,19.24
2016-08-29T10:30:13.438Z,18.96
2016-08-29T10:31:21.619Z,18.97
2016-08-29T10:41:17.715Z,18.95
2016-08-29T12:39:13.748Z,20.44
2016-08-29T12:40:21.359Z,20.36
2016-08-29T12:44:23.092Z,20.27
2016-08-29T12:46:20.805Z,20.27
2016-08-29T13:03:16.489Z,21.60
2016-08-29T13:14:17.421Z,22.35
2016-08-29T13:37:21.104Z,21.87
2016-08-29T13:38:21.023Z,21.84
2016-08-29T13:40:14.509Z,21.94
2016-08-29T13:46:21.135Z,21.88
2016-08-29T14:03:13.534Z,22.06
2016-08-29T14:04:14.284Z,22.06
2016-08-29T14:05:17.288Z,22.09
2016-08-29T14:06:12.816Z,22.08
2016-08-29T14:07:13.476Z,22.12
2016-08-29T14:08:13.329Z,22.14
2016-08-29T14:10:13.779Z,22.08
2016-08-29T14:11:13.909Z,22.16
2016-08-29T14:14:12.244Z,22.05
2016-08-29T14:15:39.803Z,22.09
2016-08-29T14:16:19.088Z,22.09
2016-08-29T14:17:22.327Z,22.10
2016-08-29T14:18:21.534Z,22.04
2016-08-29T14:19:30.535Z,22.05
2016-08-29T14:20:18.777Z,22.14
2016-08-29T14:22:21.452Z,22.14
2016-08-29T14:23:47.092Z,22.24
2016-08-29T14:24:14.055Z,22.15
2016-08-29T14:25:23.150Z,22.25
2016-08-29T14:28:17.645Z,22.15
2016-08-29T14:29:18.597Z,22.21
2016-08-29T14:30:17.191Z,22.30
2016-08-29T14:31:12.367Z,22.35
2016-08-29T14:32:27.864Z,22.40
2016-08-29T14:37:15.157Z,22.43
2016-08-29T14:38:11.517Z,22.53
2016-08-29T14:39:17.669Z,22.52
2016-08-29T14:40:16.604Z,22.56
2016-08-29T14:41:12.625Z,22.56
2016-08-29T14:42:11.649Z,22.66
2016-08-29T14:43:17.337Z,22.60
2016-08-29T14:44:11.850Z,22.59
2016-08-29T14:45:33.760Z,22.58
2016-08-29T14:46:12.962Z,22.60
2016-08-29T14:47:16.910Z,22.56
2016-08-29T14:48:12.619Z,22.55
2016-08-29T14:49:11.570Z,22.55
2016-08-29T14:50:17.509Z,22.59
2016-08-29T14:51:13.271Z,22.55
2016-08-29T14:52:17.413Z,22.44
2016-08-29T14:53:14.968Z,22.44
2016-08-29T14:54:12.946Z,22.55
2016-08-29T14:55:18.033Z,22.71
2016-08-29T14:56:13.120Z,22.76
2016-08-29T14:57:15.818Z,22.80
2016-08-29T14:58:14.502Z,22.83
2016-08-29T15:00:19.415Z,22.81
2016-08-29T15:01:21.396Z,22.91
2016-08-29T15:02:11.997Z,22.96
2016-08-29T15:03:09.295Z,23.07
2016-08-29T15:04:20.169Z,23.00
2016-08-29T15:05:12.610Z,23.00
2016-08-29T15:07:13.765Z,23.17
2016-08-29T15:08:17.527Z,23.27
2016-08-29T15:09:12.030Z,23.22
2016-08-29T15:10:23.511Z,23.21
2016-08-29T15:11:12.307Z,23.25
2016-08-29T15:12:12.484Z,23.19
2016-08-29T15:13:20.514Z,23.16
2016-08-29T15:14:13.272Z,23.08
2016-08-29T15:15:12.860Z,23.10
2016-08-29T15:16:11.255Z,23.13
2016-08-29T15:17:11.452Z,23.07
2016-08-29T15:18:16.956Z,22.91
2016-08-29T15:19:43.596Z,22.90
2016-08-29T15:20:12.465Z,22.83
2016-08-29T15:21:27.573Z,22.72
2016-08-29T15:22:11.705Z,22.65
2016-08-29T15:23:17.896Z,22.70
2016-08-29T15:24:13.557Z,22.57
2016-08-29T15:25:19.404Z,22.52
2016-08-29T15:26:11.526Z,22.46
2016-08-29T15:27:12.166Z,22.49
2016-08-29T15:28:14.040Z,22.38
2016-08-29T15:29:22.069Z,22.43
2016-08-29T15:30:21.363Z,22.46
2016-08-29T15:31:12.191Z,22.43
2016-08-29T15:32:22.763Z,22.35
2016-08-29T15:33:24.543Z,22.38
2016-08-29T15:34:28.108Z,22.27
2016-08-29T15:35:11.833Z,22.24
2016-08-29T15:36:13.756Z,22.24
2016-08-29T15:37:14.025Z,22.28
2016-08-29T15:38:15.913Z,22.36
2016-08-29T15:39:17.481Z,22.31
2016-08-29T15:40:13.051Z,22.25
2016-08-29T15:41:18.113Z,22.19
2016-08-29T15:43:19.500Z,22.17
2016-08-29T15:44:12.041Z,22.02
2016-08-29T15:45:12.798Z,21.96
2016-08-29T15:46:39.327Z,22.02
2016-08-29T15:48:11.680Z,22.04
2016-08-29T15:49:12.655Z,22.01
2016-08-29T15:50:13.684Z,21.85
2016-08-29T15:51:11.795Z,21.91
2016-08-29T15:52:12.500Z,21.84
2016-08-29T15:53:13.060Z,21.79
2016-08-29T15:54:11.774Z,21.80
2016-08-29T15:55:12.204Z,21.64
2016-08-29T15:56:12.656Z,21.68
2016-08-29T15:57:18.099Z,21.72
2016-08-29T15:58:14.783Z,21.64
2016-08-29T15:59:12.887Z,21.56
2016-08-29T16:00:12.502Z,21.56
2016-08-29T16:01:11.739Z,21.59
2016-08-29T16:02:12.058Z,21.60
2016-08-29T16:03:18.162Z,21.56
2016-08-29T16:09:34.821Z,21.34
2016-08-29T16:21:23.685Z,21.06
2016-08-29T16:25:18.160Z,21.25
2016-08-29T18:47:28.848Z,19.91
2016-08-29T19:43:19.731Z,19.61
2016-08-29T19:44:21.988Z,19.63
2016-08-29T19:45:24.115Z,19.64
2016-08-29T19:54:12.473Z,19.64
2016-08-29T19:57:34.568Z,19.73
2016-08-29T20:12:35.636Z,19.63
2016-08-29T20:13:55.560Z,19.60
2016-08-29T20:15:23.295Z,19.64
2016-08-29T20:24:21.487Z,19.54
2016-08-29T20:25:12.199Z,19.52
2016-08-29T20:27:20.188Z,19.52
2016-08-29T20:28:17.687Z,19.50
2016-08-29T20:29:20.934Z,19.53
2016-08-29T20:30:19.234Z,19.53
2016-08-29T20:31:19.296Z,19.54
2016-08-29T20:32:19.414Z,19.54
2016-08-29T20:33:14.277Z,19.55
2016-08-29T20:34:21.222Z,19.55
2016-08-29T20:35:13.312Z,19.58
2016-08-29T20:36:18.669Z,19.52
2016-08-29T20:37:12.558Z,19.52
2016-08-29T20:38:11.442Z,19.57
2016-08-29T20:39:12.645Z,19.59
2016-08-29T20:40:19.586Z,19.62
2016-08-29T20:41:13.087Z,19.54
2016-08-29T20:42:12.775Z,19.57
2016-08-29T20:43:13.346Z,19.53
2016-08-29T20:44:13.771Z,19.51
2016-08-29T20:45:11.781Z,19.53
2016-08-29T20:46:12.069Z,19.51
2016-08-29T20:47:12.435Z,19.50
2016-08-29T20:48:17.796Z,19.50
2016-08-29T20:49:11.920Z,19.54
2016-08-29T20:50:13.582Z,19.55
2016-08-29T20:51:14.440Z,19.55
2016-08-29T20:52:22.513Z,19.50
2016-08-29T20:53:21.243Z,19.52
2016-08-29T20:54:23.955Z,19.48
2016-08-29T20:55:14.729Z,19.43
2016-08-29T20:56:19.842Z,19.42
2016-08-29T20:57:12.365Z,19.43
2016-08-29T20:58:26.384Z,19.43
2016-08-29T20:59:13.242Z,19.43
2016-08-29T21:00:22.436Z,19.48
2016-08-29T21:01:25.591Z,19.46
2016-08-29T21:02:17.635Z,19.45
2016-08-29T21:03:18.415Z,19.45
2016-08-29T21:04:27.089Z,19.41
2016-08-29T21:06:16.499Z,19.43
2016-08-29T21:07:12.200Z,19.43
2016-08-29T21:08:12.000Z,19.44
2016-08-29T21:09:22.054Z,19.43
2016-08-29T21:10:21.388Z,19.48
2016-08-29T21:11:21.336Z,19.48
2016-08-29T21:12:13.772Z,19.47
2016-08-29T21:13:22.033Z,19.47
2016-08-29T21:14:23.049Z,19.47
2016-08-29T21:15:19.411Z,19.41
2016-08-29T21:16:28.232Z,19.41
2016-08-29T21:17:22.511Z,19.45
2016-08-29T21:18:14.944Z,19.47
2016-08-29T21:19:16.350Z,19.45
2016-08-29T21:20:20.152Z,19.46
2016-08-29T21:21:23.221Z,19.42
2016-08-29T21:22:13.433Z,19.37
2016-08-29T21:23:12.020Z,19.39
2016-08-29T21:24:18.641Z,19.43
2016-08-29T21:25:17.405Z,19.37
2016-08-29T21:26:17.335Z,19.37
2016-08-29T21:27:16.919Z,19.35
2016-08-29T21:28:21.693Z,19.34
2016-08-29T21:29:26.096Z,19.35
2016-08-29T21:30:15.522Z,19.37
2016-08-29T21:31:17.183Z,19.35
2016-08-29T21:32:16.977Z,19.29
2016-08-29T21:33:18.160Z,19.31
2016-08-29T21:34:26.432Z,19.35
2016-08-29T21:35:20.636Z,19.38
2016-08-29T21:36:11.838Z,19.40
2016-08-29T21:37:17.352Z,19.35
2016-08-29T21:38:11.904Z,19.33
2016-08-29T21:39:13.467Z,19.35
2016-08-29T21:40:22.275Z,19.32
2016-08-29T21:42:24.524Z,19.36
2016-08-29T21:43:17.077Z,19.34
2016-08-29T21:44:20.815Z,19.28
2016-08-29T21:45:21.203Z,19.29
2016-08-29T21:46:22.091Z,19.28
2016-08-29T21:47:22.371Z,19.28
2016-08-29T21:48:13.120Z,19.32
2016-08-29T21:49:12.729Z,19.31
2016-08-29T21:50:12.390Z,19.33
2016-08-29T21:51:20.862Z,19.29
2016-08-29T21:52:23.107Z,19.28
2016-08-29T21:54:17.519Z,19.30
2016-08-29T21:55:19.807Z,19.34
2016-08-29T21:56:27.598Z,19.28
2016-08-29T21:57:22.382Z,19.24
2016-08-29T21:58:17.986Z,19.28
2016-08-29T21:59:22.338Z,19.30
2016-08-29T22:00:22.596Z,19.29
2016-08-29T22:01:21.776Z,19.27
2016-08-29T22:02:13.898Z,19.31
2016-08-29T22:03:11.985Z,19.30
2016-08-29T22:04:17.880Z,19.29
2016-08-29T22:05:19.316Z,19.35
2016-08-29T22:06:21.183Z,19.37
2016-08-29T22:09:22.770Z,19.35
2016-08-29T22:10:17.129Z,19.35
2016-08-29T22:12:16.707Z,19.33
2016-08-29T22:14:21.722Z,19.31
2016-08-29T22:15:13.665Z,19.33
2016-08-29T22:16:21.071Z,19.31
2016-08-29T22:17:16.637Z,19.35
2016-08-29T22:18:13.533Z,19.37
2016-08-29T22:19:16.168Z,19.36
2016-08-29T22:20:26.638Z,19.39
2016-08-29T22:21:21.008Z,19.36
2016-08-29T22:22:12.119Z,19.39
2016-08-29T22:23:19.264Z,19.36
2016-08-29T22:24:22.793Z,19.38
2016-08-29T22:25:12.891Z,19.35
2016-08-29T22:26:18.147Z,19.36
2016-08-29T22:27:20.831Z,19.37
2016-08-29T22:28:22.249Z,19.40
2016-08-29T22:29:22.366Z,19.34
2016-08-29T22:30:17.129Z,19.34
2016-08-29T22:31:22.413Z,19.34
2016-08-29T22:32:18.121Z,19.34
2016-08-29T22:33:21.296Z,19.33
2016-08-29T22:34:12.709Z,19.29
2016-08-29T22:35:14.078Z,19.27
2016-08-29T22:36:17.009Z,19.27
2016-08-29T22:37:15.160Z,19.24
2016-08-29T22:38:21.161Z,19.22
2016-08-29T22:39:21.748Z,19.18
2016-08-29T22:40:22.275Z,19.17
2016-08-29T22:41:13.692Z,19.15
2016-08-29T22:42:13.252Z,19.15
2016-08-29T22:43:21.278Z,19.19
2016-08-29T22:44:21.550Z,19.22
2016-08-29T22:45:13.831Z,19.24
2016-08-29T22:46:13.999Z,19.22
2016-08-29T22:47:25.675Z,19.18
2016-08-29T22:48:25.904Z,19.19
2016-08-29T23:01:20.609Z,18.99
2016-08-29T23:02:42.580Z,18.98
2016-08-29T23:03:16.858Z,18.99
2016-08-29T23:04:22.752Z,19.01
2016-08-29T23:05:22.185Z,19.00
2016-08-29T23:06:22.475Z,19.03
2016-08-29T23:07:17.506Z,19.00
2016-08-29T23:08:22.454Z,19.03
2016-08-29T23:09:16.946Z,19.02
2016-08-29T23:10:20.659Z,19.05
2016-08-29T23:11:17.317Z,19.08
2016-08-29T23:12:17.849Z,19.04
2016-08-29T23:13:20.011Z,19.03
2016-08-29T23:15:16.714Z,19.03
2016-08-29T23:16:17.090Z,18.98
2016-08-29T23:17:20.342Z,18.98
2016-08-29T23:18:22.241Z,18.97
2016-08-29T23:19:22.422Z,18.94
2016-08-29T23:20:22.809Z,18.98
2016-08-29T23:21:20.126Z,18.96
2016-08-29T23:23:13.444Z,18.95
2016-08-29T23:24:18.403Z,18.90
2016-08-29T23:25:22.439Z,18.88
2016-08-29T23:27:16.750Z,18.95
2016-08-29T23:28:19.898Z,18.84
2016-08-29T23:29:48.700Z,18.81
2016-08-29T23:30:18.811Z,18.85
2016-08-29T23:32:19.893Z,18.91
2016-08-29T23:34:20.790Z,18.87
2016-08-29T23:35:17.142Z,18.87
2016-08-29T23:36:17.334Z,18.85
2016-08-29T23:37:17.109Z,18.84
2016-08-29T23:38:22.224Z,18.83
2016-08-29T23:40:22.241Z,18.80
2016-08-29T23:41:22.540Z,18.79
2016-08-29T23:42:21.829Z,18.83
2016-08-29T23:43:17.039Z,18.83
2016-08-29T23:44:20.302Z,18.85
2016-08-29T23:46:17.139Z,18.85
2016-08-29T23:47:20.301Z,18.81
2016-08-29T23:48:13.349Z,18.81
2016-08-29T23:49:20.583Z,18.75
2016-08-29T23:50:20.254Z,18.76
2016-08-29T23:51:17.041Z,18.74
2016-08-29T23:52:13.208Z,18.73
2016-08-29T23:53:12.710Z,18.72
2016-08-29T23:54:21.992Z,18.73
2016-08-29T23:56:17.318Z,18.70
2016-08-29T23:57:20.421Z,18.69
2016-08-29T23:58:19.615Z,18.66
2016-08-29T23:59:22.121Z,18.67
